sensor_id;sensor_type;location;lat;lon;timestamp;P1;P2;P0
65556;PMS3003;52200;53.490;14.376;2023-06-22T00:01:22;16.25;12.25;7.25
65556;PMS3003;52200;53.490;14.376;2023-06-22T00:03:48;16.00;12.50;8.00
65556;PMS3003;52200;53.490;14.376;2023-06-22T00:06:14;17.50;13.00;8.00
65556;PMS3003;52200;53.490;14.376;2023-06-22T00:08:39;15.00;12.00;7.00
65556;PMS3003;52200;53.490;14.376;2023-06-22T00:11:05;16.00;12.00;7.80
65556;PMS3003;52200;53.490;14.376;2023-06-22T00:13:30;17.00;13.00;7.75
65556;PMS3003;52200;53.490;14.376;2023-06-22T00:15:56;17.00;12.00;7.75
65556;PMS3003;52200;53.490;14.376;2023-06-22T00:18:21;18.00;12.50;8.00
65556;PMS3003;52200;53.490;14.376;2023-06-22T00:20:47;13.50;10.25;6.75
65556;PMS3003;52200;53.490;14.376;2023-06-22T00:23:12;16.75;12.25;9.00
65556;PMS3003;52200;53.490;14.376;2023-06-22T00:25:40;16.20;12.00;8.40
65556;PMS3003;52200;53.490;14.376;2023-06-22T00:28:06;15.50;12.50;8.00
65556;PMS3003;52200;53.490;14.376;2023-06-22T00:30:33;16.60;11.80;7.40
65556;PMS3003;52200;53.490;14.376;2023-06-22T00:32:59;14.20;10.20;7.00
65556;PMS3003;52200;53.490;14.376;2023-06-22T00:35:25;15.00;12.00;8.40
65556;PMS3003;52200;53.490;14.376;2023-06-22T00:37:58;15.00;11.00;7.60
65556;PMS3003;52200;53.490;14.376;2023-06-22T00:40:30;17.80;13.40;8.40
65556;PMS3003;52200;53.490;14.376;2023-06-22T00:42:57;16.00;11.60;8.40
65556;PMS3003;52200;53.490;14.376;2023-06-22T00:45:23;17.40;12.40;8.00
65556;PMS3003;52200;53.490;14.376;2023-06-22T00:47:52;16.20;13.20;6.60
65556;PMS3003;52200;53.490;14.376;2023-06-22T00:50:20;14.00;10.40;7.00
65556;PMS3003;52200;53.490;14.376;2023-06-22T00:52:56;16.20;11.80;8.40
65556;PMS3003;52200;53.490;14.376;2023-06-22T00:55:24;16.60;13.40;9.00
65556;PMS3003;52200;53.490;14.376;2023-06-22T00:57:51;15.00;11.80;7.00
65556;PMS3003;52200;53.490;14.376;2023-06-22T01:00:21;17.80;14.00;8.40
65556;PMS3003;52200;53.490;14.376;2023-06-22T01:02:49;17.00;12.40;7.60
65556;PMS3003;52200;53.490;14.376;2023-06-22T01:05:17;13.80;10.80;8.00
65556;PMS3003;52200;53.490;14.376;2023-06-22T01:10:24;17.40;14.40;8.20
65556;PMS3003;52200;53.490;14.376;2023-06-22T01:13:04;14.60;10.80;7.00
65556;PMS3003;52200;53.490;14.376;2023-06-22T01:16:25;14.40;11.00;8.00
65556;PMS3003;52200;53.490;14.376;2023-06-22T01:18:37;17.00;13.00;8.00
65556;PMS3003;52200;53.490;14.376;2023-06-22T01:21:07;16.60;13.20;8.00
65556;PMS3003;52200;53.490;14.376;2023-06-22T01:23:40;16.00;12.20;8.20
65556;PMS3003;52200;53.490;14.376;2023-06-22T01:28:55;15.20;11.80;8.60
65556;PMS3003;52200;53.490;14.376;2023-06-22T01:31:25;15.40;12.00;8.80
65556;PMS3003;52200;53.490;14.376;2023-06-22T01:33:53;14.80;11.20;8.00
65556;PMS3003;52200;53.490;14.376;2023-06-22T01:36:21;17.80;13.20;7.80
65556;PMS3003;52200;53.490;14.376;2023-06-22T01:38:48;16.80;11.80;7.20
65556;PMS3003;52200;53.490;14.376;2023-06-22T01:41:15;16.40;12.60;8.00
65556;PMS3003;52200;53.490;14.376;2023-06-22T01:43:42;14.60;11.00;6.60
65556;PMS3003;52200;53.490;14.376;2023-06-22T01:46:09;16.40;11.60;7.00
65556;PMS3003;52200;53.490;14.376;2023-06-22T01:48:36;15.60;11.60;7.00
65556;PMS3003;52200;53.490;14.376;2023-06-22T01:51:03;16.20;12.60;8.00
65556;PMS3003;52200;53.490;14.376;2023-06-22T01:53:29;16.75;12.25;8.50
65556;PMS3003;52200;53.490;14.376;2023-06-22T01:55:55;16.50;12.75;8.25
65556;PMS3003;52200;53.490;14.376;2023-06-22T01:58:21;14.40;11.40;8.00
65556;PMS3003;52200;53.490;14.376;2023-06-22T02:00:55;17.40;13.00;8.00
65556;PMS3003;52200;53.490;14.376;2023-06-22T02:03:30;17.60;13.60;7.20
65556;PMS3003;52200;53.490;14.376;2023-06-22T02:06:10;17.20;11.80;7.60
65556;PMS3003;52200;53.490;14.376;2023-06-22T02:08:48;16.40;13.40;7.40
65556;PMS3003;52200;53.490;14.376;2023-06-22T02:11:16;15.20;11.80;7.80
65556;PMS3003;52200;53.490;14.376;2023-06-22T02:13:45;16.60;12.40;8.20
65556;PMS3003;52200;53.490;14.376;2023-06-22T02:16:11;14.60;11.40;7.80
65556;PMS3003;52200;53.490;14.376;2023-06-22T02:18:38;16.40;12.60;8.00
65556;PMS3003;52200;53.490;14.376;2023-06-22T02:21:05;17.60;13.20;8.20
65556;PMS3003;52200;53.490;14.376;2023-06-22T02:23:31;16.60;12.80;8.00
65556;PMS3003;52200;53.490;14.376;2023-06-22T02:25:59;19.20;13.00;8.20
65556;PMS3003;52200;53.490;14.376;2023-06-22T02:28:28;18.00;13.60;8.00
65556;PMS3003;52200;53.490;14.376;2023-06-22T02:30:54;15.25;11.00;7.00
65556;PMS3003;52200;53.490;14.376;2023-06-22T02:33:19;17.00;14.00;9.25
65556;PMS3003;52200;53.490;14.376;2023-06-22T02:35:45;19.40;14.40;8.80
65556;PMS3003;52200;53.490;14.376;2023-06-22T02:38:13;15.00;11.60;8.00
65556;PMS3003;52200;53.490;14.376;2023-06-22T02:40:39;15.50;12.00;7.00
65556;PMS3003;52200;53.490;14.376;2023-06-22T02:43:06;17.80;12.60;8.60
65556;PMS3003;52200;53.490;14.376;2023-06-22T02:45:31;18.25;12.00;8.00
65556;PMS3003;52200;53.490;14.376;2023-06-22T02:47:57;17.75;12.25;8.00
65556;PMS3003;52200;53.490;14.376;2023-06-22T02:50:22;16.75;13.75;8.00
65556;PMS3003;52200;53.490;14.376;2023-06-22T02:52:48;16.00;12.75;9.00
65556;PMS3003;52200;53.490;14.376;2023-06-22T02:55:13;18.00;13.00;9.00
65556;PMS3003;52200;53.490;14.376;2023-06-22T02:57:39;17.20;12.60;8.80
65556;PMS3003;52200;53.490;14.376;2023-06-22T03:00:09;14.60;11.40;8.00
65556;PMS3003;52200;53.490;14.376;2023-06-22T03:02:45;16.80;12.60;9.00
65556;PMS3003;52200;53.490;14.376;2023-06-22T03:05:12;16.40;12.40;9.00
65556;PMS3003;52200;53.490;14.376;2023-06-22T03:07:40;17.20;13.40;8.60
65556;PMS3003;52200;53.490;14.376;2023-06-22T03:10:07;15.60;11.40;7.00
65556;PMS3003;52200;53.490;14.376;2023-06-22T03:12:34;18.40;14.40;9.60
65556;PMS3003;52200;53.490;14.376;2023-06-22T03:14:59;15.75;12.50;8.50
65556;PMS3003;52200;53.490;14.376;2023-06-22T03:17:25;17.25;14.00;9.25
65556;PMS3003;52200;53.490;14.376;2023-06-22T03:19:50;18.50;13.50;9.25
65556;PMS3003;52200;53.490;14.376;2023-06-22T03:22:16;18.00;12.25;7.75
65556;PMS3003;52200;53.490;14.376;2023-06-22T03:24:41;14.50;10.00;7.50
65556;PMS3003;52200;53.490;14.376;2023-06-22T03:27:06;18.25;12.75;8.00
65556;PMS3003;52200;53.490;14.376;2023-06-22T03:29:32;16.25;12.00;8.00
65556;PMS3003;52200;53.490;14.376;2023-06-22T03:31:57;16.50;13.25;8.50
65556;PMS3003;52200;53.490;14.376;2023-06-22T03:34:23;15.75;11.75;8.00
65556;PMS3003;52200;53.490;14.376;2023-06-22T03:36:48;15.50;11.75;7.00
65556;PMS3003;52200;53.490;14.376;2023-06-22T03:39:13;15.25;11.75;8.00
65556;PMS3003;52200;53.490;14.376;2023-06-22T03:41:39;14.50;11.00;7.00
65556;PMS3003;52200;53.490;14.376;2023-06-22T03:44:04;14.75;11.25;6.75
65556;PMS3003;52200;53.490;14.376;2023-06-22T03:46:30;14.00;9.25;6.75
65556;PMS3003;52200;53.490;14.376;2023-06-22T03:48:55;14.00;11.00;8.00
65556;PMS3003;52200;53.490;14.376;2023-06-22T03:51:21;17.00;13.50;8.00
65556;PMS3003;52200;53.490;14.376;2023-06-22T03:53:46;16.75;12.25;9.00
65556;PMS3003;52200;53.490;14.376;2023-06-22T03:56:13;15.60;11.20;7.60
65556;PMS3003;52200;53.490;14.376;2023-06-22T03:58:45;15.60;12.20;9.00
65556;PMS3003;52200;53.490;14.376;2023-06-22T04:01:10;19.50;15.75;10.00
65556;PMS3003;52200;53.490;14.376;2023-06-22T04:03:36;17.80;13.80;9.20
65556;PMS3003;52200;53.490;14.376;2023-06-22T04:06:02;15.80;12.00;7.60
65556;PMS3003;52200;53.490;14.376;2023-06-22T04:08:28;16.25;13.50;9.00
65556;PMS3003;52200;53.490;14.376;2023-06-22T04:10:53;18.75;14.50;9.75
65556;PMS3003;52200;53.490;14.376;2023-06-22T04:13:18;15.25;11.75;9.00
65556;PMS3003;52200;53.490;14.376;2023-06-22T04:15:44;16.60;13.00;8.60
65556;PMS3003;52200;53.490;14.376;2023-06-22T04:18:10;16.50;12.75;9.75
65556;PMS3003;52200;53.490;14.376;2023-06-22T04:20:35;17.25;13.25;9.00
65556;PMS3003;52200;53.490;14.376;2023-06-22T04:23:01;15.75;12.00;8.00
65556;PMS3003;52200;53.490;14.376;2023-06-22T04:25:27;17.25;13.00;9.00
65556;PMS3003;52200;53.490;14.376;2023-06-22T04:27:52;14.75;11.50;7.75
65556;PMS3003;52200;53.490;14.376;2023-06-22T04:30:18;16.00;12.75;9.25
65556;PMS3003;52200;53.490;14.376;2023-06-22T04:32:43;16.25;12.75;7.25
65556;PMS3003;52200;53.490;14.376;2023-06-22T04:35:10;15.00;11.00;8.00
65556;PMS3003;52200;53.490;14.376;2023-06-22T04:37:36;16.00;12.80;8.40
65556;PMS3003;52200;53.490;14.376;2023-06-22T04:40:01;16.00;12.80;8.40
65556;PMS3003;52200;53.490;14.376;2023-06-22T04:42:29;16.20;13.00;8.20
65556;PMS3003;52200;53.490;14.376;2023-06-22T04:44:55;17.00;13.20;10.20
65556;PMS3003;52200;53.490;14.376;2023-06-22T04:47:20;16.50;13.50;8.75
65556;PMS3003;52200;53.490;14.376;2023-06-22T04:49:46;15.50;12.25;9.00
65556;PMS3003;52200;53.490;14.376;2023-06-22T04:52:12;20.25;14.75;8.50
65556;PMS3003;52200;53.490;14.376;2023-06-22T04:54:38;15.20;12.00;8.60
65556;PMS3003;52200;53.490;14.376;2023-06-22T04:57:12;17.60;14.40;10.60
65556;PMS3003;52200;53.490;14.376;2023-06-22T04:59:38;17.00;13.00;9.20
65556;PMS3003;52200;53.490;14.376;2023-06-22T05:02:06;18.60;15.40;10.40
65556;PMS3003;52200;53.490;14.376;2023-06-22T05:04:32;16.60;15.00;9.60
65556;PMS3003;52200;53.490;14.376;2023-06-22T05:07:00;17.40;13.40;9.40
65556;PMS3003;52200;53.490;14.376;2023-06-22T05:09:26;15.00;12.80;8.60
65556;PMS3003;52200;53.490;14.376;2023-06-22T05:11:51;16.50;14.00;9.00
65556;PMS3003;52200;53.490;14.376;2023-06-22T05:14:17;17.00;14.75;9.50
65556;PMS3003;52200;53.490;14.376;2023-06-22T05:16:43;17.60;16.60;10.00
65556;PMS3003;52200;53.490;14.376;2023-06-22T05:19:10;16.40;14.00;9.20
65556;PMS3003;52200;53.490;14.376;2023-06-22T05:21:35;17.50;15.00;9.00
65556;PMS3003;52200;53.490;14.376;2023-06-22T05:24:01;14.80;13.00;8.80
65556;PMS3003;52200;53.490;14.376;2023-06-22T05:26:28;16.00;14.40;8.40
65556;PMS3003;52200;53.490;14.376;2023-06-22T05:28:54;13.40;12.40;8.00
65556;PMS3003;52200;53.490;14.376;2023-06-22T05:31:21;14.40;12.00;7.00
65556;PMS3003;52200;53.490;14.376;2023-06-22T05:33:47;18.00;16.80;10.00
65556;PMS3003;52200;53.490;14.376;2023-06-22T05:36:13;17.20;14.40;7.80
65556;PMS3003;52200;53.490;14.376;2023-06-22T05:38:39;16.25;14.75;7.25
65556;PMS3003;52200;53.490;14.376;2023-06-22T05:41:05;17.20;15.00;8.60
65556;PMS3003;52200;53.490;14.376;2023-06-22T05:43:31;14.00;12.60;6.00
65556;PMS3003;52200;53.490;14.376;2023-06-22T05:45:57;13.80;12.80;6.60
65556;PMS3003;52200;53.490;14.376;2023-06-22T05:48:23;12.75;12.75;6.00
65556;PMS3003;52200;53.490;14.376;2023-06-22T05:50:49;16.25;14.75;7.25
65556;PMS3003;52200;53.490;14.376;2023-06-22T05:53:14;13.75;13.00;8.25
65556;PMS3003;52200;53.490;14.376;2023-06-22T05:55:40;12.75;12.75;7.00
65556;PMS3003;52200;53.490;14.376;2023-06-22T05:58:06;12.50;12.50;6.25
65556;PMS3003;52200;53.490;14.376;2023-06-22T06:00:31;11.25;11.00;5.50
65556;PMS3003;52200;53.490;14.376;2023-06-22T06:02:57;12.00;10.25;5.00
65556;PMS3003;52200;53.490;14.376;2023-06-22T06:05:28;11.00;10.80;5.20
65556;PMS3003;52200;53.490;14.376;2023-06-22T06:07:53;9.50;8.25;4.00
65556;PMS3003;52200;53.490;14.376;2023-06-22T06:10:19;9.00;9.00;4.00
65556;PMS3003;52200;53.490;14.376;2023-06-22T06:12:44;10.50;10.25;4.25
65556;PMS3003;52200;53.490;14.376;2023-06-22T06:15:10;10.00;10.00;4.00
65556;PMS3003;52200;53.490;14.376;2023-06-22T06:17:35;7.00;7.00;2.75
65556;PMS3003;52200;53.490;14.376;2023-06-22T06:20:01;8.25;8.25;3.25
65556;PMS3003;52200;53.490;14.376;2023-06-22T06:22:28;9.80;9.60;3.80
65556;PMS3003;52200;53.490;14.376;2023-06-22T06:24:53;8.00;8.00;3.00
65556;PMS3003;52200;53.490;14.376;2023-06-22T06:27:19;8.00;7.75;2.00
65556;PMS3003;52200;53.490;14.376;2023-06-22T06:29:44;8.25;8.25;4.25
65556;PMS3003;52200;53.490;14.376;2023-06-22T06:32:13;7.00;7.00;3.00
65556;PMS3003;52200;53.490;14.376;2023-06-22T06:34:39;8.00;8.00;3.50
65556;PMS3003;52200;53.490;14.376;2023-06-22T06:37:05;9.80;9.20;3.60
65556;PMS3003;52200;53.490;14.376;2023-06-22T06:39:31;9.00;9.00;4.00
65556;PMS3003;52200;53.490;14.376;2023-06-22T06:41:56;8.00;8.00;3.00
65556;PMS3003;52200;53.490;14.376;2023-06-22T06:44:21;10.00;10.00;4.00
65556;PMS3003;52200;53.490;14.376;2023-06-22T06:46:47;8.00;8.00;3.50
65556;PMS3003;52200;53.490;14.376;2023-06-22T06:49:12;9.00;8.75;4.00
65556;PMS3003;52200;53.490;14.376;2023-06-22T06:51:38;8.00;8.00;3.00
65556;PMS3003;52200;53.490;14.376;2023-06-22T06:54:03;10.00;9.00;4.00
65556;PMS3003;52200;53.490;14.376;2023-06-22T06:56:29;8.00;7.75;2.25
65556;PMS3003;52200;53.490;14.376;2023-06-22T06:58:55;6.00;6.00;2.40
65556;PMS3003;52200;53.490;14.376;2023-06-22T07:01:20;7.75;7.00;3.00
65556;PMS3003;52200;53.490;14.376;2023-06-22T07:03:46;7.25;7.00;2.00
65556;PMS3003;52200;53.490;14.376;2023-06-22T07:06:11;7.00;7.00;2.75
65556;PMS3003;52200;53.490;14.376;2023-06-22T07:08:38;9.40;8.40;2.80
65556;PMS3003;52200;53.490;14.376;2023-06-22T07:11:04;6.40;6.40;2.00
65556;PMS3003;52200;53.490;14.376;2023-06-22T07:13:30;6.50;6.50;2.00
65556;PMS3003;52200;53.490;14.376;2023-06-22T07:15:55;7.25;7.25;2.00
65556;PMS3003;52200;53.490;14.376;2023-06-22T07:18:20;7.00;7.00;2.00
65556;PMS3003;52200;53.490;14.376;2023-06-22T07:20:46;6.75;6.00;2.00
65556;PMS3003;52200;53.490;14.376;2023-06-22T07:23:12;6.40;6.40;2.00
65556;PMS3003;52200;53.490;14.376;2023-06-22T07:25:37;6.75;6.75;3.00
65556;PMS3003;52200;53.490;14.376;2023-06-22T07:28:04;8.75;8.75;3.00
65556;PMS3003;52200;53.490;14.376;2023-06-22T07:30:32;6.60;6.60;1.80
65556;PMS3003;52200;53.490;14.376;2023-06-22T07:32:58;5.00;5.00;1.80
65556;PMS3003;52200;53.490;14.376;2023-06-22T07:35:28;6.00;6.00;2.60
65556;PMS3003;52200;53.490;14.376;2023-06-22T07:37:54;6.40;6.40;2.20
65556;PMS3003;52200;53.490;14.376;2023-06-22T07:40:19;6.00;5.00;2.00
65556;PMS3003;52200;53.490;14.376;2023-06-22T07:42:45;5.25;5.25;2.00
65556;PMS3003;52200;53.490;14.376;2023-06-22T07:45:13;5.20;5.20;1.20
65556;PMS3003;52200;53.490;14.376;2023-06-22T07:47:39;6.60;6.00;2.00
65556;PMS3003;52200;53.490;14.376;2023-06-22T07:50:05;7.50;7.50;2.00
65556;PMS3003;52200;53.490;14.376;2023-06-22T07:52:31;5.80;5.80;2.00
65556;PMS3003;52200;53.490;14.376;2023-06-22T07:54:56;6.80;6.60;1.00
65556;PMS3003;52200;53.490;14.376;2023-06-22T07:57:22;5.25;5.25;1.00
65556;PMS3003;52200;53.490;14.376;2023-06-22T07:59:47;6.75;6.50;2.00
65556;PMS3003;52200;53.490;14.376;2023-06-22T08:02:13;6.00;6.00;2.00
65556;PMS3003;52200;53.490;14.376;2023-06-22T08:04:38;5.25;5.25;1.00
65556;PMS3003;52200;53.490;14.376;2023-06-22T08:07:04;4.80;4.80;1.00
65556;PMS3003;52200;53.490;14.376;2023-06-22T08:09:31;5.00;5.00;1.75
65556;PMS3003;52200;53.490;14.376;2023-06-22T08:11:57;6.40;6.40;2.00
65556;PMS3003;52200;53.490;14.376;2023-06-22T08:14:24;6.40;5.60;0.40
65556;PMS3003;52200;53.490;14.376;2023-06-22T08:16:50;5.40;5.00;1.00
65556;PMS3003;52200;53.490;14.376;2023-06-22T08:19:16;5.00;5.00;1.50
65556;PMS3003;52200;53.490;14.376;2023-06-22T08:21:41;6.50;6.00;1.00
65556;PMS3003;52200;53.490;14.376;2023-06-22T08:24:07;4.60;4.60;1.00
65556;PMS3003;52200;53.490;14.376;2023-06-22T08:26:33;5.25;5.25;2.00
65556;PMS3003;52200;53.490;14.376;2023-06-22T08:29:02;6.60;5.60;1.20
65556;PMS3003;52200;53.490;14.376;2023-06-22T08:31:28;5.80;5.40;1.00
65556;PMS3003;52200;53.490;14.376;2023-06-22T08:33:53;4.00;4.00;0.75
65556;PMS3003;52200;53.490;14.376;2023-06-22T08:36:19;5.50;5.25;1.00
65556;PMS3003;52200;53.490;14.376;2023-06-22T08:38:44;7.00;7.00;1.25
65556;PMS3003;52200;53.490;14.376;2023-06-22T08:41:10;7.00;6.75;2.00
65556;PMS3003;52200;53.490;14.376;2023-06-22T08:43:35;6.00;6.00;2.00
65556;PMS3003;52200;53.490;14.376;2023-06-22T08:46:01;7.25;7.00;1.50
65556;PMS3003;52200;53.490;14.376;2023-06-22T08:48:27;5.80;5.20;2.00
65556;PMS3003;52200;53.490;14.376;2023-06-22T08:50:53;5.40;4.80;1.00
65556;PMS3003;52200;53.490;14.376;2023-06-22T08:53:19;6.25;6.00;1.25
65556;PMS3003;52200;53.490;14.376;2023-06-22T08:55:44;6.00;5.50;1.25
65556;PMS3003;52200;53.490;14.376;2023-06-22T08:58:10;5.00;5.00;1.00
65556;PMS3003;52200;53.490;14.376;2023-06-22T09:00:36;6.75;6.00;1.50
65556;PMS3003;52200;53.490;14.376;2023-06-22T09:03:02;6.40;6.20;2.40
65556;PMS3003;52200;53.490;14.376;2023-06-22T09:05:28;7.00;6.50;2.00
65556;PMS3003;52200;53.490;14.376;2023-06-22T09:07:53;6.20;6.20;2.20
65556;PMS3003;52200;53.490;14.376;2023-06-22T09:10:21;5.40;5.40;2.00
65556;PMS3003;52200;53.490;14.376;2023-06-22T09:12:46;4.50;4.25;1.00
65556;PMS3003;52200;53.490;14.376;2023-06-22T09:15:12;5.25;5.25;2.00
65556;PMS3003;52200;53.490;14.376;2023-06-22T09:17:37;7.00;6.25;2.00
65556;PMS3003;52200;53.490;14.376;2023-06-22T09:20:03;8.00;7.00;2.00
65556;PMS3003;52200;53.490;14.376;2023-06-22T09:22:31;5.60;5.00;1.40
65556;PMS3003;52200;53.490;14.376;2023-06-22T09:24:57;7.00;6.20;2.00
65556;PMS3003;52200;53.490;14.376;2023-06-22T09:27:24;5.00;5.00;1.80
65556;PMS3003;52200;53.490;14.376;2023-06-22T09:29:50;5.50;5.50;2.00
65556;PMS3003;52200;53.490;14.376;2023-06-22T09:32:15;8.00;6.25;2.00
65556;PMS3003;52200;53.490;14.376;2023-06-22T09:34:41;6.00;6.00;2.00
65556;PMS3003;52200;53.490;14.376;2023-06-22T09:37:06;7.00;7.00;2.00
65556;PMS3003;52200;53.490;14.376;2023-06-22T09:39:31;8.00;7.00;2.50
65556;PMS3003;52200;53.490;14.376;2023-06-22T09:41:58;5.00;5.00;1.00
65556;PMS3003;52200;53.490;14.376;2023-06-22T09:44:25;6.20;6.20;2.40
65556;PMS3003;52200;53.490;14.376;2023-06-22T09:46:50;4.75;4.75;1.25
65556;PMS3003;52200;53.490;14.376;2023-06-22T09:49:16;6.00;5.00;2.00
65556;PMS3003;52200;53.490;14.376;2023-06-22T09:51:41;6.75;6.75;1.50
65556;PMS3003;52200;53.490;14.376;2023-06-22T09:54:07;6.50;6.25;1.75
65556;PMS3003;52200;53.490;14.376;2023-06-22T09:56:32;5.75;5.75;2.00
65556;PMS3003;52200;53.490;14.376;2023-06-22T09:58:58;5.75;5.75;2.50
65556;PMS3003;52200;53.490;14.376;2023-06-22T10:01:23;6.00;6.00;3.00
65556;PMS3003;52200;53.490;14.376;2023-06-22T10:03:49;7.60;7.20;3.00
65556;PMS3003;52200;53.490;14.376;2023-06-22T10:06:19;6.60;6.40;3.00
65556;PMS3003;52200;53.490;14.376;2023-06-22T10:08:45;7.00;7.00;3.00
65556;PMS3003;52200;53.490;14.376;2023-06-22T10:11:10;7.00;6.00;2.25
65556;PMS3003;52200;53.490;14.376;2023-06-22T10:13:35;7.00;6.00;2.75
65556;PMS3003;52200;53.490;14.376;2023-06-22T10:16:01;8.00;8.00;3.25
65556;PMS3003;52200;53.490;14.376;2023-06-22T10:18:26;9.00;8.00;4.00
65556;PMS3003;52200;53.490;14.376;2023-06-22T10:20:52;7.00;7.00;2.25
65556;PMS3003;52200;53.490;14.376;2023-06-22T10:23:20;6.25;6.25;2.75
65556;PMS3003;52200;53.490;14.376;2023-06-22T10:25:46;7.00;7.00;2.20
65556;PMS3003;52200;53.490;14.376;2023-06-22T10:28:11;9.00;8.75;3.50
65556;PMS3003;52200;53.490;14.376;2023-06-22T10:30:40;9.00;9.00;3.00
65556;PMS3003;52200;53.490;14.376;2023-06-22T10:33:06;9.60;9.00;3.00
65556;PMS3003;52200;53.490;14.376;2023-06-22T10:35:35;8.00;8.00;3.40
65556;PMS3003;52200;53.490;14.376;2023-06-22T10:38:03;9.00;8.00;4.00
65556;PMS3003;52200;53.490;14.376;2023-06-22T10:40:29;8.80;8.80;3.60
65556;PMS3003;52200;53.490;14.376;2023-06-22T10:42:54;9.00;9.00;4.00
65556;PMS3003;52200;53.490;14.376;2023-06-22T10:45:20;8.75;8.75;4.00
65556;PMS3003;52200;53.490;14.376;2023-06-22T10:47:45;9.75;9.75;4.00
65556;PMS3003;52200;53.490;14.376;2023-06-22T10:50:11;9.00;9.00;4.25
65556;PMS3003;52200;53.490;14.376;2023-06-22T10:52:37;8.00;8.00;4.00
65556;PMS3003;52200;53.490;14.376;2023-06-22T10:55:02;9.00;8.75;4.25
65556;PMS3003;52200;53.490;14.376;2023-06-22T10:57:28;9.20;9.20;4.00
65556;PMS3003;52200;53.490;14.376;2023-06-22T10:59:54;9.50;9.00;4.75
65556;PMS3003;52200;53.490;14.376;2023-06-22T11:02:19;9.75;9.00;4.00
65556;PMS3003;52200;53.490;14.376;2023-06-22T11:04:45;9.25;9.25;3.75
65556;PMS3003;52200;53.490;14.376;2023-06-22T11:07:11;8.80;8.80;4.00
65556;PMS3003;52200;53.490;14.376;2023-06-22T11:09:36;8.00;7.75;3.00
65556;PMS3003;52200;53.490;14.376;2023-06-22T11:12:03;8.60;8.60;4.40
65556;PMS3003;52200;53.490;14.376;2023-06-22T11:14:29;10.00;10.00;4.20
65556;PMS3003;52200;53.490;14.376;2023-06-22T11:16:54;8.00;8.00;3.75
65556;PMS3003;52200;53.490;14.376;2023-06-22T11:19:21;9.00;9.00;4.00
65556;PMS3003;52200;53.490;14.376;2023-06-22T11:21:46;9.25;8.75;5.00
65556;PMS3003;52200;53.490;14.376;2023-06-22T11:24:12;9.25;9.00;4.00
65556;PMS3003;52200;53.490;14.376;2023-06-22T11:26:37;9.75;9.75;4.00
65556;PMS3003;52200;53.490;14.376;2023-06-22T11:29:03;10.00;9.00;4.00
65556;PMS3003;52200;53.490;14.376;2023-06-22T11:31:32;7.00;6.60;3.00
65556;PMS3003;52200;53.490;14.376;2023-06-22T11:34:00;10.00;10.00;4.00
65556;PMS3003;52200;53.490;14.376;2023-06-22T11:36:26;10.60;10.20;4.60
65556;PMS3003;52200;53.490;14.376;2023-06-22T11:38:52;6.80;6.80;3.00
65556;PMS3003;52200;53.490;14.376;2023-06-22T11:41:17;8.75;8.50;5.00
65556;PMS3003;52200;53.490;14.376;2023-06-22T11:43:42;9.00;9.00;5.00
65556;PMS3003;52200;53.490;14.376;2023-06-22T11:46:08;10.25;10.00;4.75
65556;PMS3003;52200;53.490;14.376;2023-06-22T11:48:33;9.00;9.00;4.00
65556;PMS3003;52200;53.490;14.376;2023-06-22T11:50:59;8.25;8.25;3.75
65556;PMS3003;52200;53.490;14.376;2023-06-22T11:53:25;8.75;8.50;4.50
65556;PMS3003;52200;53.490;14.376;2023-06-22T11:55:51;11.20;9.60;5.00
65556;PMS3003;52200;53.490;14.376;2023-06-22T11:58:19;10.00;10.00;4.00
65556;PMS3003;52200;53.490;14.376;2023-06-22T12:00:44;10.00;9.25;5.00
65556;PMS3003;52200;53.490;14.376;2023-06-22T12:03:10;9.25;8.50;3.50
65556;PMS3003;52200;53.490;14.376;2023-06-22T12:05:36;8.60;8.60;4.00
65556;PMS3003;52200;53.490;14.376;2023-06-22T12:08:01;8.50;8.50;4.00
65556;PMS3003;52200;53.490;14.376;2023-06-22T12:10:27;10.00;10.00;5.00
65556;PMS3003;52200;53.490;14.376;2023-06-22T12:12:55;9.20;9.00;4.00
65556;PMS3003;52200;53.490;14.376;2023-06-22T12:15:22;9.80;9.60;5.20
65556;PMS3003;52200;53.490;14.376;2023-06-22T12:17:48;10.00;10.00;5.00
65556;PMS3003;52200;53.490;14.376;2023-06-22T12:20:13;8.75;8.75;3.50
65556;PMS3003;52200;53.490;14.376;2023-06-22T12:22:39;8.75;8.75;4.00
65556;PMS3003;52200;53.490;14.376;2023-06-22T12:25:06;9.60;9.40;4.80
65556;PMS3003;52200;53.490;14.376;2023-06-22T12:27:32;11.60;11.00;4.80
65556;PMS3003;52200;53.490;14.376;2023-06-22T12:29:57;12.50;11.75;5.75
65556;PMS3003;52200;53.490;14.376;2023-06-22T12:32:23;12.00;11.00;5.75
65556;PMS3003;52200;53.490;14.376;2023-06-22T12:34:48;10.50;10.00;4.00
65556;PMS3003;52200;53.490;14.376;2023-06-22T12:37:13;10.25;10.25;5.25
65556;PMS3003;52200;53.490;14.376;2023-06-22T12:39:40;10.25;10.25;4.00
65556;PMS3003;52200;53.490;14.376;2023-06-22T12:42:06;10.00;10.00;5.00
65556;PMS3003;52200;53.490;14.376;2023-06-22T12:44:33;13.00;12.20;5.80
65556;PMS3003;52200;53.490;14.376;2023-06-22T12:46:59;10.60;10.60;5.00
65556;PMS3003;52200;53.490;14.376;2023-06-22T12:49:26;10.00;10.00;4.25
65556;PMS3003;52200;53.490;14.376;2023-06-22T12:51:51;10.60;10.60;5.60
65556;PMS3003;52200;53.490;14.376;2023-06-22T12:54:16;9.00;9.00;3.00
65556;PMS3003;52200;53.490;14.376;2023-06-22T12:56:42;9.50;9.25;4.75
65556;PMS3003;52200;53.490;14.376;2023-06-22T12:59:10;10.00;9.60;4.20
65556;PMS3003;52200;53.490;14.376;2023-06-22T13:01:36;12.20;9.80;4.00
65556;PMS3003;52200;53.490;14.376;2023-06-22T13:04:02;9.75;9.75;4.50
65556;PMS3003;52200;53.490;14.376;2023-06-22T13:06:28;11.60;10.20;5.40
65556;PMS3003;52200;53.490;14.376;2023-06-22T13:08:54;10.75;10.50;4.00
65556;PMS3003;52200;53.490;14.376;2023-06-22T13:11:19;10.50;10.50;5.25
65556;PMS3003;52200;53.490;14.376;2023-06-22T13:13:45;10.25;10.00;5.00
65556;PMS3003;52200;53.490;14.376;2023-06-22T13:16:11;11.80;11.00;5.00
65556;PMS3003;52200;53.490;14.376;2023-06-22T13:18:37;10.60;10.00;6.00
65556;PMS3003;52200;53.490;14.376;2023-06-22T13:21:03;8.50;8.50;4.50
65556;PMS3003;52200;53.490;14.376;2023-06-22T13:23:28;10.40;10.40;4.20
65556;PMS3003;52200;53.490;14.376;2023-06-22T13:25:54;9.25;9.00;4.25
65556;PMS3003;52200;53.490;14.376;2023-06-22T13:28:19;9.00;9.00;5.00
65556;PMS3003;52200;53.490;14.376;2023-06-22T13:30:46;11.40;11.20;5.40
65556;PMS3003;52200;53.490;14.376;2023-06-22T13:33:15;10.20;9.80;5.00
65556;PMS3003;52200;53.490;14.376;2023-06-22T13:35:41;10.40;10.00;4.80
65556;PMS3003;52200;53.490;14.376;2023-06-22T13:38:07;10.20;10.00;5.80
65556;PMS3003;52200;53.490;14.376;2023-06-22T13:40:36;10.20;10.20;4.20
65556;PMS3003;52200;53.490;14.376;2023-06-22T13:43:05;9.00;8.80;3.60
65556;PMS3003;52200;53.490;14.376;2023-06-22T13:45:31;7.50;7.25;4.00
65556;PMS3003;52200;53.490;14.376;2023-06-22T13:47:57;8.00;8.00;4.20
65556;PMS3003;52200;53.490;14.376;2023-06-22T13:50:23;10.00;10.00;3.20
65556;PMS3003;52200;53.490;14.376;2023-06-22T13:52:49;8.00;8.00;4.00
65556;PMS3003;52200;53.490;14.376;2023-06-22T13:55:14;9.00;9.00;3.50
65556;PMS3003;52200;53.490;14.376;2023-06-22T13:57:40;12.00;10.00;3.50